createdAt,value
2023-05-25T00:00:38.249Z,1.00
2023-05-25T00:03:31.414Z,1.00
2023-05-25T00:06:02.186Z,1.00
2023-05-25T00:08:30.025Z,99.90
2023-05-25T00:10:57.072Z,99.90
2023-05-25T00:13:24.408Z,99.90
2023-05-25T00:15:51.509Z,99.90
2023-05-25T00:18:19.066Z,99.90
2023-05-25T00:20:47.580Z,99.90
2023-05-25T00:23:15.184Z,99.90
2023-05-25T00:25:42.863Z,99.90
2023-05-25T00:28:11.706Z,99.90
2023-05-25T00:30:39.164Z,99.90
2023-05-25T00:33:07.185Z,1.00
2023-05-25T00:35:34.221Z,1.00
2023-05-25T00:38:01.533Z,1.00
2023-05-25T00:40:29.336Z,1.00
2023-05-25T00:42:59.289Z,1.00
2023-05-25T00:45:26.368Z,1.00
2023-05-25T00:47:54.393Z,1.00
2023-05-25T00:50:42.618Z,1.00
2023-05-25T00:53:12.974Z,1.00
2023-05-25T00:55:54.549Z,13.20
2023-05-25T00:58:27.018Z,22.90
2023-05-25T01:00:57.806Z,20.40
2023-05-25T01:03:28.396Z,20.30
2023-05-25T01:05:58.037Z,18.30
2023-05-25T01:08:26.967Z,14.70
2023-05-25T01:10:55.681Z,22.30
2023-05-25T01:13:23.390Z,23.90
2023-05-25T01:15:51.828Z,32.20
2023-05-25T01:18:19.169Z,30.60
2023-05-25T01:21:13.360Z,20.60
2023-05-25T01:24:04.910Z,30.60
2023-05-25T01:26:37.454Z,25.90
2023-05-25T01:29:06.426Z,25.80
2023-05-25T01:31:36.300Z,18.40
2023-05-25T01:34:05.961Z,45.70
2023-05-25T01:36:33.393Z,42.90
2023-05-25T01:39:01.089Z,48.00
2023-05-25T01:41:30.233Z,47.90
2023-05-25T01:44:00.892Z,39.00
2023-05-25T01:46:39.449Z,40.00
2023-05-25T01:49:58.221Z,62.70
2023-05-25T01:52:36.082Z,71.80
2023-05-25T01:55:17.987Z,74.10
2023-05-25T01:57:49.453Z,75.80
2023-05-25T02:00:19.719Z,72.70
2023-05-25T02:02:48.342Z,68.50
2023-05-25T02:05:20.922Z,72.90
2023-05-25T02:07:48.134Z,72.00
2023-05-25T02:10:15.706Z,72.70
2023-05-25T02:12:42.969Z,79.30
2023-05-25T02:15:11.573Z,82.20
2023-05-25T02:17:38.909Z,81.10
2023-05-25T02:20:08.388Z,73.50
2023-05-25T02:22:37.402Z,75.60
2023-05-25T02:25:05.782Z,83.60
2023-05-25T02:27:33.244Z,85.10
2023-05-25T02:30:01.112Z,78.10
2023-05-25T02:32:29.830Z,85.20
2023-05-25T02:34:57.216Z,87.60
2023-05-25T02:37:24.351Z,84.00
2023-05-25T02:39:51.824Z,78.60
2023-05-25T02:42:19.342Z,74.90
2023-05-25T02:44:48.452Z,69.80
2023-05-25T02:47:18.108Z,69.90
2023-05-25T02:49:46.220Z,70.00
2023-05-25T02:52:13.581Z,66.40
2023-05-25T02:54:41.711Z,61.40
2023-05-25T02:57:13.829Z,62.10
2023-05-25T02:59:41.332Z,55.20
2023-05-25T03:02:08.851Z,55.70
2023-05-25T03:04:38.948Z,56.60
2023-05-25T03:07:06.226Z,46.90
2023-05-25T03:09:34.162Z,38.80
2023-05-25T03:12:03.854Z,36.10
2023-05-25T03:14:31.444Z,23.40
2023-05-25T03:17:04.289Z,7.60
2023-05-25T03:19:32.409Z,11.10
2023-05-25T03:22:00.290Z,6.90
2023-05-25T03:24:28.836Z,1.00
2023-05-25T03:26:59.548Z,1.00
2023-05-25T03:29:27.122Z,1.00
2023-05-25T03:31:54.376Z,1.00
2023-05-25T03:34:26.319Z,1.00
2023-05-25T03:36:55.081Z,1.00
2023-05-25T03:39:22.625Z,1.00
2023-05-25T03:41:51.622Z,1.00
2023-05-25T03:44:19.303Z,99.90
2023-05-25T03:46:46.920Z,99.90
2023-05-25T03:49:14.544Z,99.90
2023-05-25T03:51:43.184Z,99.90
2023-05-25T03:54:11.500Z,99.90
2023-05-25T03:56:38.757Z,99.90
2023-05-25T03:59:06.383Z,1.00
2023-05-25T04:01:33.678Z,99.90
2023-05-25T04:04:03.063Z,1.00
2023-05-25T04:06:30.366Z,99.90
2023-05-25T04:09:01.467Z,99.90
2023-05-25T04:11:29.315Z,99.90
2023-05-25T04:13:57.015Z,99.90
2023-05-25T04:16:27.224Z,99.90
2023-05-25T04:18:56.383Z,99.90
2023-05-25T04:21:24.452Z,46.60
2023-05-25T04:23:52.309Z,9.20
2023-05-25T04:26:20.500Z,1.00
2023-05-25T04:28:50.168Z,99.90
2023-05-25T04:31:41.162Z,1.00
2023-05-25T04:34:29.738Z,99.90
2023-05-25T04:37:11.886Z,99.90
2023-05-25T04:39:40.443Z,99.90
2023-05-25T04:42:07.825Z,99.90
2023-05-25T04:44:36.156Z,44.20
2023-05-25T04:47:08.096Z,99.90
2023-05-25T04:49:36.265Z,99.90
2023-05-25T04:52:03.878Z,1.00
2023-05-25T04:54:32.008Z,1.00
2023-05-25T04:57:02.448Z,99.90
2023-05-25T04:59:31.912Z,95.90
2023-05-25T05:01:59.370Z,56.30
2023-05-25T05:04:27.385Z,99.90
2023-05-25T05:06:57.381Z,99.90
2023-05-25T05:09:26.986Z,99.90
2023-05-25T05:11:57.189Z,99.90
2023-05-25T05:14:24.718Z,99.90
2023-05-25T05:16:53.169Z,99.90
2023-05-25T05:19:23.002Z,99.90
2023-05-25T05:21:50.227Z,99.90
2023-05-25T05:24:18.641Z,99.90
2023-05-25T05:26:57.215Z,99.90
2023-05-25T05:29:34.364Z,99.90
2023-05-25T05:32:01.755Z,99.90
2023-05-25T05:34:29.199Z,99.90
2023-05-25T05:36:58.540Z,99.90
2023-05-25T05:39:28.304Z,99.90
2023-05-25T05:41:56.036Z,99.90
2023-05-25T05:44:26.915Z,99.90
2023-05-25T05:47:00.752Z,99.90
2023-05-25T05:49:30.786Z,99.90
2023-05-25T05:51:58.770Z,99.90
2023-05-25T05:54:28.062Z,99.90
2023-05-25T05:56:56.706Z,99.90
2023-05-25T05:59:24.402Z,99.90
2023-05-25T06:01:51.806Z,99.90
2023-05-25T07:41:43.187Z,99.90
2023-05-25T07:44:12.545Z,99.90
2023-05-25T07:46:39.644Z,99.90
2023-05-25T07:49:12.037Z,99.90
2023-05-25T07:51:39.595Z,99.90
2023-05-25T07:54:09.451Z,99.90
2023-05-25T07:56:36.527Z,99.90
2023-05-25T07:59:04.133Z,99.90
2023-05-25T08:01:31.552Z,99.90
2023-05-25T08:04:01.739Z,99.90
2023-05-25T08:06:28.909Z,99.90
2023-05-25T08:08:56.465Z,99.90
2023-05-25T08:11:27.727Z,99.90
2023-05-25T08:13:55.194Z,99.90
2023-05-25T08:16:22.418Z,99.90
2023-05-25T08:18:49.994Z,99.90
2023-05-25T08:21:17.061Z,99.90
2023-05-25T08:23:44.496Z,99.90
2023-05-25T08:26:31.145Z,99.90
2023-05-25T08:28:59.173Z,99.90
2023-05-25T08:31:26.569Z,99.90
2023-05-25T08:33:54.091Z,99.90
2023-05-25T08:36:21.216Z,99.90
2023-05-25T08:38:48.599Z,99.90
2023-05-25T08:41:16.737Z,99.90
2023-05-25T08:43:44.193Z,99.90
2023-05-25T08:46:12.486Z,99.90
2023-05-25T08:48:42.189Z,99.90
2023-05-25T08:51:12.301Z,99.90
2023-05-25T08:53:41.555Z,99.90
2023-05-25T08:56:19.759Z,99.90
2023-05-25T08:59:09.424Z,99.90
2023-05-25T09:01:43.456Z,99.90
2023-05-25T09:04:14.091Z,99.90
2023-05-25T09:06:41.443Z,99.90
2023-05-25T09:09:09.628Z,99.90
2023-05-25T09:11:39.949Z,99.90
2023-05-25T09:14:08.843Z,99.90
2023-05-25T09:16:37.674Z,99.90
2023-05-25T09:19:05.095Z,99.90
2023-05-25T09:21:32.242Z,99.90
2023-05-25T09:24:01.827Z,99.90
2023-05-25T09:26:29.053Z,99.90
2023-05-25T09:28:56.485Z,99.90
2023-05-25T09:31:25.123Z,99.90
2023-05-25T09:33:55.621Z,99.90
2023-05-25T09:36:23.413Z,99.90
2023-05-25T09:38:54.761Z,99.90
2023-05-25T09:41:22.320Z,99.90
2023-05-25T09:46:21.771Z,99.90
2023-05-25T09:48:50.324Z,99.90
2023-05-25T09:51:17.877Z,99.90
2023-05-25T09:53:45.894Z,99.90
2023-05-25T09:56:13.096Z,99.90
2023-05-25T09:58:41.962Z,99.90
2023-05-25T10:01:08.996Z,99.90
2023-05-25T10:03:36.560Z,99.90
2023-05-25T10:06:04.652Z,99.90
2023-05-25T10:08:33.726Z,99.90
2023-05-25T10:11:01.286Z,99.90
2023-05-25T10:13:30.324Z,99.90
2023-05-25T10:15:58.368Z,99.90
2023-05-25T10:18:30.995Z,99.90
2023-05-25T10:21:03.616Z,99.90
2023-05-25T10:23:38.396Z,99.90
2023-05-25T10:26:06.298Z,99.90
2023-05-25T10:28:37.338Z,99.90
2023-05-25T10:31:05.916Z,99.90
2023-05-25T10:33:34.232Z,99.90
2023-05-25T10:36:10.825Z,99.90
2023-05-25T10:38:41.003Z,99.90
2023-05-25T10:41:11.245Z,99.90
2023-05-25T10:43:40.611Z,99.90
2023-05-25T10:46:08.355Z,99.90
2023-05-25T10:48:37.561Z,99.90
2023-05-25T10:51:05.639Z,99.90
2023-05-25T10:53:33.096Z,99.90
2023-05-25T10:56:02.433Z,99.90
2023-05-25T10:58:31.039Z,99.90
2023-05-25T11:01:03.853Z,99.90
2023-05-25T11:04:08.020Z,99.90
2023-05-25T11:06:40.302Z,99.90
2023-05-25T11:09:23.187Z,99.90
2023-05-25T11:11:50.893Z,99.90
2023-05-25T11:14:27.981Z,99.90
2023-05-25T11:17:04.863Z,99.90
2023-05-25T11:19:52.505Z,99.90
2023-05-25T11:22:21.227Z,99.90
2023-05-25T11:24:52.683Z,99.90
2023-05-25T11:27:24.033Z,99.90
2023-05-25T11:29:53.597Z,99.90
2023-05-25T11:32:52.855Z,99.90
2023-05-25T11:35:21.902Z,99.90
2023-05-25T11:37:53.659Z,99.90
2023-05-25T11:40:24.458Z,99.90
2023-05-25T11:42:52.880Z,99.90
2023-05-25T11:45:23.070Z,99.90
2023-05-25T11:47:50.511Z,99.90
2023-05-25T11:50:18.091Z,99.90
2023-05-25T11:52:45.919Z,99.90
2023-05-25T11:55:15.338Z,99.90
2023-05-25T11:57:46.456Z,99.90
2023-05-25T12:00:27.291Z,99.90
2023-05-25T12:02:55.017Z,99.90
2023-05-25T12:05:23.377Z,99.90
2023-05-25T12:07:50.973Z,99.90
2023-05-25T12:10:18.883Z,99.90
2023-05-25T12:12:50.365Z,99.90
2023-05-25T12:15:22.554Z,99.90
2023-05-25T12:17:51.900Z,99.90
2023-05-25T12:20:20.382Z,99.90
2023-05-25T12:22:48.167Z,99.90
2023-05-25T12:25:21.256Z,99.90
2023-05-25T12:27:48.640Z,99.90
2023-05-25T12:30:16.402Z,99.90
2023-05-25T12:33:02.387Z,99.90
2023-05-25T12:35:43.893Z,99.90
2023-05-25T12:38:23.767Z,99.90
2023-05-25T12:41:07.236Z,99.90
2023-05-25T12:43:44.931Z,99.90
2023-05-25T12:46:23.653Z,99.90
2023-05-25T12:48:50.912Z,99.90
2023-05-25T12:51:18.296Z,99.90
2023-05-25T12:53:51.910Z,99.90
2023-05-25T12:56:19.467Z,99.90
2023-05-25T12:58:46.578Z,99.90
2023-05-25T13:01:15.571Z,99.90
2023-05-25T13:03:42.657Z,99.90
2023-05-25T13:06:10.043Z,99.90
2023-05-25T13:08:37.199Z,99.90
2023-05-25T13:11:05.154Z,99.90
2023-05-25T13:13:32.469Z,99.90
2023-05-25T13:16:00.162Z,99.90
2023-05-25T13:18:27.311Z,99.90
2023-05-25T13:20:56.667Z,99.90
2023-05-25T13:23:24.449Z,99.90
2023-05-25T13:25:53.154Z,99.90
2023-05-25T13:28:20.231Z,99.90
2023-05-25T13:30:47.696Z,99.90
2023-05-25T13:33:14.874Z,99.90
2023-05-25T13:35:57.705Z,99.90
2023-05-25T13:38:25.302Z,99.90
2023-05-25T13:40:52.948Z,99.90
2023-05-25T13:43:22.832Z,99.90
2023-05-25T13:45:50.337Z,99.90
2023-05-25T13:48:17.651Z,99.90
2023-05-25T13:50:45.421Z,99.90
2023-05-25T13:53:13.478Z,99.90
2023-05-25T13:55:41.025Z,99.90
2023-05-25T13:58:08.228Z,99.90
2023-05-25T14:00:36.404Z,99.90
2023-05-25T14:03:03.757Z,99.90
2023-05-25T14:05:31.506Z,99.90
2023-05-25T14:08:01.030Z,99.90
2023-05-25T14:10:28.656Z,99.90
2023-05-25T14:12:55.985Z,99.90
2023-05-25T14:15:23.455Z,99.90
2023-05-25T14:17:50.547Z,99.90
2023-05-25T14:20:25.337Z,99.90
2023-05-25T14:22:53.360Z,99.90
2023-05-25T14:25:21.209Z,99.90
2023-05-25T14:27:48.349Z,99.90
2023-05-25T14:30:15.824Z,99.90
2023-05-25T14:32:43.139Z,99.90
2023-05-25T14:35:10.585Z,99.90
2023-05-25T14:37:37.743Z,99.90
2023-05-25T14:40:05.564Z,99.90
2023-05-25T14:42:32.691Z,99.90
2023-05-25T14:45:00.063Z,99.90
2023-05-25T14:47:27.179Z,99.90
2023-05-25T14:49:55.496Z,99.90
2023-05-25T14:52:24.006Z,99.90
2023-05-25T14:54:51.413Z,99.90
2023-05-25T14:57:18.614Z,99.90
2023-05-25T14:59:46.041Z,99.90
2023-05-25T15:02:13.141Z,99.90
2023-05-25T15:04:40.732Z,99.90
2023-05-25T15:07:12.166Z,99.90
2023-05-25T15:09:40.892Z,99.90
2023-05-25T15:12:08.201Z,99.90
2023-05-25T15:14:39.877Z,99.90
2023-05-25T15:17:07.459Z,99.90
2023-05-25T15:19:36.232Z,99.90
2023-05-25T15:22:03.982Z,99.90
2023-05-25T15:24:32.797Z,99.90
2023-05-25T15:27:00.058Z,99.90
2023-05-25T15:29:27.486Z,99.90
2023-05-25T15:31:54.793Z,99.90
2023-05-25T15:34:22.278Z,99.90
2023-05-25T15:36:49.643Z,99.90
2023-05-25T15:39:22.425Z,99.90
2023-05-25T15:41:49.593Z,99.90
2023-05-25T15:44:18.830Z,99.90
2023-05-25T15:46:45.989Z,99.90
2023-05-25T15:49:13.445Z,99.90
2023-05-25T15:51:42.667Z,99.90
2023-05-25T15:54:14.170Z,99.90
2023-05-25T15:56:44.480Z,99.90
2023-05-25T15:59:14.705Z,99.90
2023-05-25T16:01:42.012Z,99.90
2023-05-25T16:04:09.870Z,99.90
2023-05-25T16:06:38.493Z,99.90
2023-05-25T16:09:06.041Z,99.90
2023-05-25T16:11:35.944Z,99.90
2023-05-25T16:14:03.384Z,99.90
2023-05-25T16:16:30.700Z,99.90
2023-05-25T16:18:58.309Z,99.90
2023-05-25T16:21:25.805Z,99.90
2023-05-25T16:23:53.561Z,99.90
2023-05-25T16:26:22.528Z,99.90
2023-05-25T16:28:50.021Z,99.90
2023-05-25T16:31:17.442Z,99.90
2023-05-25T16:33:45.487Z,99.90
2023-05-25T16:36:14.168Z,99.90
2023-05-25T16:38:41.788Z,99.90
2023-05-25T16:41:09.032Z,99.90
2023-05-25T16:43:39.527Z,99.90
2023-05-25T16:46:06.897Z,99.90
2023-05-25T16:48:35.492Z,99.90
2023-05-25T16:51:03.331Z,99.90
2023-05-25T16:53:31.888Z,99.90
2023-05-25T16:55:59.028Z,99.90
2023-05-25T16:58:27.010Z,99.90
2023-05-25T17:00:57.178Z,99.90
2023-05-25T17:03:24.679Z,99.90
2023-05-25T17:05:53.797Z,99.90
2023-05-25T17:08:21.601Z,99.90
2023-05-25T17:10:49.313Z,99.90
2023-05-25T17:13:17.176Z,99.90
2023-05-25T17:15:44.790Z,99.90
2023-05-25T17:18:12.717Z,99.90
2023-05-25T17:20:40.101Z,99.90
2023-05-25T17:23:07.866Z,99.90
2023-05-25T17:25:35.030Z,99.90
2023-05-25T17:28:06.391Z,99.90
2023-05-25T17:30:34.096Z,99.90
2023-05-25T17:33:05.060Z,99.90
2023-05-25T17:35:32.779Z,99.90
2023-05-25T17:38:00.453Z,99.90
2023-05-25T17:40:27.668Z,99.90
2023-05-25T17:42:55.502Z,99.90
2023-05-25T17:45:22.858Z,99.90
2023-05-25T17:47:52.318Z,99.90
2023-05-25T17:50:20.064Z,99.90
2023-05-25T17:52:48.205Z,99.90
2023-05-25T17:55:15.529Z,99.90
2023-05-25T17:57:43.188Z,99.90
2023-05-25T18:00:10.839Z,99.90
2023-05-25T18:02:41.701Z,99.90
2023-05-25T18:05:09.383Z,99.90
2023-05-25T18:07:38.967Z,99.90
2023-05-25T18:10:06.297Z,99.90
2023-05-25T18:12:34.237Z,99.90
2023-05-25T18:15:01.487Z,1.00
2023-05-25T18:17:29.517Z,1.00
2023-05-25T18:19:57.002Z,1.00
2023-05-25T18:22:25.509Z,1.00
2023-05-25T18:24:55.103Z,1.00
2023-05-25T18:27:22.818Z,1.00
2023-05-25T18:29:49.962Z,1.00
2023-05-25T18:32:18.647Z,1.00
2023-05-25T18:34:46.098Z,1.00
2023-05-25T18:37:15.007Z,1.00
2023-05-25T18:39:42.457Z,1.00
2023-05-25T18:42:13.635Z,1.00
2023-05-25T18:44:41.767Z,1.00
2023-05-25T18:47:10.342Z,1.00
2023-05-25T18:49:38.643Z,99.90
2023-05-25T18:52:08.316Z,1.00
2023-05-25T18:54:35.482Z,1.00
2023-05-25T18:57:03.804Z,1.10
2023-05-25T18:59:33.434Z,1.00
2023-05-25T19:02:01.713Z,99.90
2023-05-25T19:04:32.226Z,1.00
2023-05-25T19:06:59.905Z,99.90
2023-05-25T19:09:27.269Z,99.90
2023-05-25T19:11:55.624Z,1.00
2023-05-25T19:14:23.446Z,83.40
2023-05-25T19:16:50.980Z,1.00
2023-05-25T19:19:18.912Z,1.00
2023-05-25T19:21:46.712Z,1.00
2023-05-25T19:24:14.077Z,38.50
2023-05-25T19:26:41.809Z,36.20
2023-05-25T19:29:09.017Z,99.90
2023-05-25T19:31:36.861Z,99.90
2023-05-25T19:34:04.164Z,99.90
2023-05-25T19:39:01.103Z,99.90
2023-05-25T19:41:32.216Z,99.90
2023-05-25T19:43:59.802Z,99.90
2023-05-25T19:46:27.757Z,99.90
2023-05-25T19:48:57.716Z,99.90
2023-05-25T19:53:56.956Z,99.90
2023-05-25T19:56:25.017Z,99.90
2023-05-25T19:58:52.328Z,1.00
2023-05-25T20:01:21.000Z,99.90
2023-05-25T20:03:49.220Z,1.00
2023-05-25T20:08:45.507Z,99.90
2023-05-25T20:11:13.322Z,1.00
2023-05-25T20:13:41.593Z,99.90
2023-05-25T20:16:10.599Z,99.90
2023-05-25T20:18:38.886Z,99.90
2023-05-25T20:21:06.371Z,99.90
2023-05-25T20:23:33.804Z,1.00
2023-05-25T20:26:02.212Z,1.00
2023-05-25T20:28:29.255Z,99.90
2023-05-25T20:30:56.851Z,1.00
2023-05-25T20:35:53.217Z,99.90
2023-05-25T20:38:20.424Z,99.90
2023-05-25T20:40:48.090Z,99.90
2023-05-25T20:43:15.403Z,99.90
2023-05-25T20:45:42.970Z,99.90
2023-05-25T20:48:14.819Z,83.70
2023-05-25T20:50:42.238Z,99.90
2023-05-25T20:53:12.075Z,42.60
2023-05-25T20:55:40.556Z,14.10
2023-05-25T20:58:07.600Z,99.90
2023-05-25T21:03:04.896Z,1.00
2023-05-25T21:05:33.942Z,99.90
2023-05-25T21:08:03.720Z,99.90
2023-05-25T21:10:31.231Z,1.00
2023-05-25T21:12:58.324Z,99.90
2023-05-25T21:17:54.068Z,39.90
2023-05-25T21:20:21.657Z,99.90
2023-05-25T21:22:48.864Z,99.90
2023-05-25T21:25:16.252Z,66.40
2023-05-25T21:27:43.241Z,99.90
2023-05-25T21:30:11.014Z,99.90
2023-05-25T21:32:42.533Z,99.90
2023-05-25T21:35:09.942Z,99.90
2023-05-25T21:37:37.092Z,99.90
2023-05-25T21:40:05.627Z,99.90
2023-05-25T21:42:33.048Z,99.90
2023-05-25T21:45:00.867Z,99.90
2023-05-25T21:47:28.004Z,99.90
2023-05-25T21:49:56.713Z,99.90
2023-05-25T21:52:24.275Z,99.90
2023-05-25T21:54:51.640Z,99.90
2023-05-25T21:57:19.384Z,99.90
2023-05-25T21:59:46.931Z,99.90
2023-05-25T22:02:14.043Z,99.90
2023-05-25T22:04:41.494Z,12.20
2023-05-25T22:07:08.530Z,99.90
2023-05-25T22:09:35.885Z,94.00
2023-05-25T22:12:03.047Z,9.00
2023-05-25T22:14:30.565Z,99.90
2023-05-25T22:16:57.726Z,99.90
2023-05-25T22:19:58.996Z,99.90
2023-05-25T22:26:32.763Z,99.90
2023-05-25T22:29:16.755Z,99.90
2023-05-25T22:31:50.080Z,1.00
2023-05-25T22:34:33.312Z,23.60
2023-05-25T22:37:03.210Z,8.70
2023-05-25T22:39:37.771Z,99.90
2023-05-25T22:42:10.561Z,1.00
2023-05-25T22:44:38.774Z,99.90
2023-05-25T22:47:08.078Z,99.90
2023-05-25T22:49:46.436Z,99.90
2023-05-25T22:52:18.664Z,1.00
2023-05-25T22:58:41.123Z,1.00
2023-05-25T23:01:11.062Z,73.90
2023-05-25T23:03:47.237Z,41.60
2023-05-25T23:06:37.231Z,99.90
2023-05-25T23:09:19.310Z,1.00
2023-05-25T23:11:48.152Z,1.00
2023-05-25T23:14:34.485Z,99.90
2023-05-25T23:17:07.817Z,99.90
2023-05-25T23:19:36.196Z,99.90
2023-05-25T23:22:38.606Z,99.90
2023-05-25T23:25:43.303Z,55.40
2023-05-25T23:28:13.186Z,99.90
2023-05-25T23:30:50.908Z,43.30
2023-05-25T23:33:20.899Z,99.90
2023-05-25T23:35:53.120Z,99.90
2023-05-25T23:39:04.228Z,1.00
2023-05-25T23:47:30.401Z,99.90
2023-05-25T23:50:01.674Z,1.00
2023-05-25T23:52:32.454Z,99.90
2023-05-25T23:55:01.076Z,99.90
2023-05-25T23:57:40.123Z,99.90
